3°C Temp
3°C Dewpoint
% Humidity
Temperature
8 KM/H
5 MPH
4 KTS
270°
Due West

Wind Speed
Misty
Conditions
Pressure 1017.92 (hPa) - 30.06 (in)
Visibility 1.3 (mi) - 2.1 (km)

Current Conditions
EDDG
Location 6km (3.2mi)
Metar :EDDG 060350Z AUTO 27004KT 2100 1400 R25/P2000N BR BKN001 BKN013 03/03 Q1018 NOSIG
Tue 6th December 04:50 am

Airport
  Metar Aviation API Data Provided by https://www.checkwx.com/ PHP scripts by weather34.com ©2022